sensor_id;sensor_type;location;lat;lon;timestamp;pressure;altitude;pressure_sealevel;temperature;humidity
21956;BME280;11142;49.930;8.606;2023-07-29T00:01:02;99493.34;;;20.18;100.00
21956;BME280;11142;49.930;8.606;2023-07-29T00:03:31;99493.44;;;20.33;100.00
21956;BME280;11142;49.930;8.606;2023-07-29T00:05:59;99491.81;;;20.32;100.00
21956;BME280;11142;49.930;8.606;2023-07-29T00:08:27;99488.34;;;20.31;100.00
21956;BME280;11142;49.930;8.606;2023-07-29T00:10:56;99482.84;;;20.41;100.00
21956;BME280;11142;49.930;8.606;2023-07-29T00:13:26;99484.50;;;20.42;100.00
21956;BME280;11142;49.930;8.606;2023-07-29T00:15:54;99481.09;;;20.56;100.00
21956;BME280;11142;49.930;8.606;2023-07-29T00:18:23;99485.75;;;20.54;100.00
21956;BME280;11142;49.930;8.606;2023-07-29T00:20:51;99474.84;;;20.57;100.00
21956;BME280;11142;49.930;8.606;2023-07-29T00:23:20;99483.50;;;20.65;100.00
21956;BME280;11142;49.930;8.606;2023-07-29T00:25:48;99475.59;;;20.65;100.00
21956;BME280;11142;49.930;8.606;2023-07-29T00:28:16;99475.19;;;20.77;100.00
21956;BME280;11142;49.930;8.606;2023-07-29T00:30:50;99469.25;;;20.75;100.00
21956;BME280;11142;49.930;8.606;2023-07-29T00:33:20;99470.66;;;20.85;100.00
21956;BME280;11142;49.930;8.606;2023-07-29T00:35:47;99470.53;;;21.01;100.00
21956;BME280;11142;49.930;8.606;2023-07-29T00:38:16;99463.59;;;21.00;100.00
21956;BME280;11142;49.930;8.606;2023-07-29T00:40:44;99456.38;;;21.17;100.00
21956;BME280;11142;49.930;8.606;2023-07-29T00:43:15;99455.41;;;20.95;100.00
21956;BME280;11142;49.930;8.606;2023-07-29T00:45:43;99451.31;;;20.93;100.00
21956;BME280;11142;49.930;8.606;2023-07-29T00:48:14;99440.91;;;20.91;100.00
21956;BME280;11142;49.930;8.606;2023-07-29T00:50:44;99442.47;;;20.86;100.00
21956;BME280;11142;49.930;8.606;2023-07-29T00:53:12;99446.28;;;20.83;100.00
21956;BME280;11142;49.930;8.606;2023-07-29T00:55:40;99453.66;;;20.65;100.00
21956;BME280;11142;49.930;8.606;2023-07-29T00:58:11;99443.44;;;20.70;100.00
21956;BME280;11142;49.930;8.606;2023-07-29T01:00:41;99442.97;;;20.66;100.00
21956;BME280;11142;49.930;8.606;2023-07-29T01:03:54;99433.09;;;20.83;100.00
21956;BME280;11142;49.930;8.606;2023-07-29T01:06:26;99446.09;;;20.99;100.00
21956;BME280;11142;49.930;8.606;2023-07-29T01:09:01;99436.63;;;21.13;100.00
21956;BME280;11142;49.930;8.606;2023-07-29T01:11:36;99434.50;;;21.08;100.00
21956;BME280;11142;49.930;8.606;2023-07-29T01:14:11;99430.91;;;21.24;100.00
21956;BME280;11142;49.930;8.606;2023-07-29T01:16:58;99436.34;;;21.23;100.00
21956;BME280;11142;49.930;8.606;2023-07-29T01:19:55;99431.53;;;21.26;100.00
21956;BME280;11142;49.930;8.606;2023-07-29T01:22:30;99429.88;;;21.25;100.00
21956;BME280;11142;49.930;8.606;2023-07-29T01:25:02;99430.09;;;21.24;100.00
21956;BME280;11142;49.930;8.606;2023-07-29T01:27:39;99437.28;;;21.30;100.00
21956;BME280;11142;49.930;8.606;2023-07-29T01:30:10;99443.84;;;21.34;100.00
21956;BME280;11142;49.930;8.606;2023-07-29T01:32:49;99440.53;;;21.32;100.00
21956;BME280;11142;49.930;8.606;2023-07-29T01:35:22;99441.38;;;21.17;100.00
21956;BME280;11142;49.930;8.606;2023-07-29T01:38:07;99440.63;;;21.24;100.00
21956;BME280;11142;49.930;8.606;2023-07-29T01:40:42;99434.00;;;21.28;100.00
21956;BME280;11142;49.930;8.606;2023-07-29T01:43:17;99431.38;;;21.28;100.00
21956;BME280;11142;49.930;8.606;2023-07-29T01:45:52;99430.97;;;21.16;100.00
21956;BME280;11142;49.930;8.606;2023-07-29T01:48:26;99423.13;;;21.08;100.00
21956;BME280;11142;49.930;8.606;2023-07-29T01:51:00;99431.34;;;21.13;100.00
21956;BME280;11142;49.930;8.606;2023-07-29T01:53:38;99415.69;;;21.11;100.00
21956;BME280;11142;49.930;8.606;2023-07-29T01:56:09;99412.09;;;21.04;100.00
21956;BME280;11142;49.930;8.606;2023-07-29T01:58:50;99412.25;;;21.11;100.00
21956;BME280;11142;49.930;8.606;2023-07-29T02:01:21;99409.28;;;21.06;100.00
21956;BME280;11142;49.930;8.606;2023-07-29T02:03:52;99403.28;;;20.97;100.00
21956;BME280;11142;49.930;8.606;2023-07-29T02:06:24;99398.56;;;20.93;100.00
21956;BME280;11142;49.930;8.606;2023-07-29T02:08:56;99400.63;;;20.83;100.00
21956;BME280;11142;49.930;8.606;2023-07-29T02:11:27;99404.00;;;20.91;100.00
21956;BME280;11142;49.930;8.606;2023-07-29T02:13:56;99402.06;;;20.85;100.00
21956;BME280;11142;49.930;8.606;2023-07-29T02:16:28;99402.50;;;20.74;100.00
21956;BME280;11142;49.930;8.606;2023-07-29T02:18:57;99397.41;;;20.58;100.00
21956;BME280;11142;49.930;8.606;2023-07-29T02:21:32;99397.78;;;20.47;100.00
21956;BME280;11142;49.930;8.606;2023-07-29T02:24:05;99383.88;;;20.38;100.00
21956;BME280;11142;49.930;8.606;2023-07-29T02:26:36;99372.75;;;20.28;100.00
21956;BME280;11142;49.930;8.606;2023-07-29T02:29:11;99378.44;;;20.09;100.00
21956;BME280;11142;49.930;8.606;2023-07-29T02:31:44;99375.53;;;20.04;100.00
21956;BME280;11142;49.930;8.606;2023-07-29T02:34:16;99368.16;;;19.99;100.00
21956;BME280;11142;49.930;8.606;2023-07-29T02:36:51;99373.88;;;20.03;100.00
21956;BME280;11142;49.930;8.606;2023-07-29T02:39:22;99376.28;;;20.12;100.00
21956;BME280;11142;49.930;8.606;2023-07-29T02:41:52;99373.94;;;20.17;100.00
21956;BME280;11142;49.930;8.606;2023-07-29T02:44:22;99378.25;;;20.10;100.00
21956;BME280;11142;49.930;8.606;2023-07-29T02:46:50;99386.06;;;20.04;100.00
21956;BME280;11142;49.930;8.606;2023-07-29T02:49:19;99378.97;;;20.04;100.00
21956;BME280;11142;49.930;8.606;2023-07-29T02:51:47;99369.78;;;20.00;100.00
21956;BME280;11142;49.930;8.606;2023-07-29T02:54:16;99372.78;;;19.97;100.00
21956;BME280;11142;49.930;8.606;2023-07-29T02:56:44;99376.78;;;19.85;100.00
21956;BME280;11142;49.930;8.606;2023-07-29T02:59:14;99382.59;;;19.50;100.00
21956;BME280;11142;49.930;8.606;2023-07-29T03:01:42;99382.53;;;19.11;100.00
21956;BME280;11142;49.930;8.606;2023-07-29T03:04:10;99381.69;;;19.10;100.00
21956;BME280;11142;49.930;8.606;2023-07-29T03:06:39;99376.88;;;19.30;100.00
21956;BME280;11142;49.930;8.606;2023-07-29T03:09:07;99369.38;;;19.58;100.00
21956;BME280;11142;49.930;8.606;2023-07-29T03:11:36;99356.53;;;19.86;100.00
21956;BME280;11142;49.930;8.606;2023-07-29T03:14:04;99344.72;;;19.82;100.00
21956;BME280;11142;49.930;8.606;2023-07-29T03:16:33;99346.41;;;19.75;100.00
21956;BME280;11142;49.930;8.606;2023-07-29T03:19:01;99344.16;;;19.63;100.00
21956;BME280;11142;49.930;8.606;2023-07-29T03:21:29;99345.88;;;19.56;100.00
21956;BME280;11142;49.930;8.606;2023-07-29T03:23:57;99342.16;;;19.43;100.00
21956;BME280;11142;49.930;8.606;2023-07-29T03:26:25;99342.31;;;19.41;100.00
21956;BME280;11142;49.930;8.606;2023-07-29T03:28:53;99347.06;;;19.46;100.00
21956;BME280;11142;49.930;8.606;2023-07-29T03:31:21;99338.53;;;19.36;100.00
21956;BME280;11142;49.930;8.606;2023-07-29T03:33:50;99331.44;;;19.44;100.00
21956;BME280;11142;49.930;8.606;2023-07-29T03:36:20;99337.72;;;19.43;100.00
21956;BME280;11142;49.930;8.606;2023-07-29T03:38:49;99329.81;;;19.43;100.00
21956;BME280;11142;49.930;8.606;2023-07-29T03:41:17;99338.72;;;19.34;100.00
21956;BME280;11142;49.930;8.606;2023-07-29T03:43:46;99339.50;;;19.43;100.00
21956;BME280;11142;49.930;8.606;2023-07-29T03:46:14;99344.94;;;19.41;100.00
21956;BME280;11142;49.930;8.606;2023-07-29T03:48:46;99332.78;;;19.40;100.00
21956;BME280;11142;49.930;8.606;2023-07-29T03:51:15;99333.38;;;19.50;100.00
21956;BME280;11142;49.930;8.606;2023-07-29T03:53:43;99332.56;;;19.50;100.00
21956;BME280;11142;49.930;8.606;2023-07-29T03:56:11;99330.88;;;19.57;100.00
21956;BME280;11142;49.930;8.606;2023-07-29T03:58:40;99338.00;;;19.48;100.00
21956;BME280;11142;49.930;8.606;2023-07-29T04:01:08;99332.44;;;19.35;100.00
21956;BME280;11142;49.930;8.606;2023-07-29T04:03:36;99335.75;;;19.29;100.00
21956;BME280;11142;49.930;8.606;2023-07-29T04:06:05;99335.59;;;19.31;100.00
21956;BME280;11142;49.930;8.606;2023-07-29T04:08:36;99333.09;;;19.37;100.00
21956;BME280;11142;49.930;8.606;2023-07-29T04:11:05;99331.09;;;19.39;100.00
21956;BME280;11142;49.930;8.606;2023-07-29T04:13:32;99333.56;;;19.49;100.00
21956;BME280;11142;49.930;8.606;2023-07-29T04:16:01;99335.22;;;19.50;100.00
21956;BME280;11142;49.930;8.606;2023-07-29T04:18:29;99331.63;;;19.43;100.00
21956;BME280;11142;49.930;8.606;2023-07-29T04:20:57;99330.28;;;19.47;100.00
21956;BME280;11142;49.930;8.606;2023-07-29T04:23:25;99322.84;;;19.50;100.00
21956;BME280;11142;49.930;8.606;2023-07-29T04:25:54;99333.03;;;19.53;100.00
21956;BME280;11142;49.930;8.606;2023-07-29T04:28:22;99327.19;;;19.43;100.00
21956;BME280;11142;49.930;8.606;2023-07-29T04:30:50;99325.81;;;19.47;100.00
21956;BME280;11142;49.930;8.606;2023-07-29T04:33:18;99328.72;;;19.60;100.00
21956;BME280;11142;49.930;8.606;2023-07-29T04:35:46;99319.00;;;19.61;100.00
21956;BME280;11142;49.930;8.606;2023-07-29T04:38:14;99322.63;;;19.60;100.00
21956;BME280;11142;49.930;8.606;2023-07-29T04:40:42;99318.38;;;19.59;100.00
21956;BME280;11142;49.930;8.606;2023-07-29T04:43:11;99313.59;;;19.63;100.00
21956;BME280;11142;49.930;8.606;2023-07-29T04:45:42;99310.88;;;19.71;100.00
21956;BME280;11142;49.930;8.606;2023-07-29T04:48:11;99318.50;;;19.66;100.00
21956;BME280;11142;49.930;8.606;2023-07-29T04:50:39;99305.03;;;19.60;100.00
21956;BME280;11142;49.930;8.606;2023-07-29T04:53:08;99305.00;;;19.69;100.00
21956;BME280;11142;49.930;8.606;2023-07-29T04:55:36;99315.94;;;19.80;100.00
21956;BME280;11142;49.930;8.606;2023-07-29T04:58:04;99319.84;;;19.84;100.00
21956;BME280;11142;49.930;8.606;2023-07-29T05:00:33;99321.31;;;19.87;100.00
21956;BME280;11142;49.930;8.606;2023-07-29T05:03:02;99326.22;;;19.90;100.00
21956;BME280;11142;49.930;8.606;2023-07-29T05:05:31;99325.41;;;19.89;100.00
21956;BME280;11142;49.930;8.606;2023-07-29T05:08:00;99319.03;;;20.06;100.00
21956;BME280;11142;49.930;8.606;2023-07-29T05:10:28;99314.97;;;20.19;100.00
21956;BME280;11142;49.930;8.606;2023-07-29T05:12:56;99318.50;;;20.34;100.00
21956;BME280;11142;49.930;8.606;2023-07-29T05:15:24;99320.25;;;20.41;100.00
21956;BME280;11142;49.930;8.606;2023-07-29T05:17:53;99327.81;;;20.44;100.00
21956;BME280;11142;49.930;8.606;2023-07-29T05:20:22;99318.91;;;20.45;100.00
21956;BME280;11142;49.930;8.606;2023-07-29T05:22:50;99329.47;;;20.60;100.00
21956;BME280;11142;49.930;8.606;2023-07-29T05:25:17;99335.09;;;20.57;100.00
21956;BME280;11142;49.930;8.606;2023-07-29T05:27:45;99330.56;;;20.65;100.00
21956;BME280;11142;49.930;8.606;2023-07-29T05:30:14;99329.56;;;20.81;100.00
21956;BME280;11142;49.930;8.606;2023-07-29T05:32:42;99336.06;;;21.08;100.00
21956;BME280;11142;49.930;8.606;2023-07-29T05:35:11;99342.50;;;21.35;100.00
21956;BME280;11142;49.930;8.606;2023-07-29T05:37:39;99349.97;;;21.46;100.00
21956;BME280;11142;49.930;8.606;2023-07-29T05:40:08;99357.41;;;21.57;100.00
21956;BME280;11142;49.930;8.606;2023-07-29T05:42:38;99350.13;;;21.44;100.00
21956;BME280;11142;49.930;8.606;2023-07-29T05:45:06;99359.16;;;21.50;100.00
21956;BME280;11142;49.930;8.606;2023-07-29T05:47:35;99354.25;;;21.47;100.00
21956;BME280;11142;49.930;8.606;2023-07-29T05:50:04;99352.78;;;21.44;100.00
21956;BME280;11142;49.930;8.606;2023-07-29T05:52:35;99361.59;;;21.51;100.00
21956;BME280;11142;49.930;8.606;2023-07-29T05:55:04;99358.66;;;21.61;100.00
21956;BME280;11142;49.930;8.606;2023-07-29T05:57:33;99354.91;;;21.70;100.00
21956;BME280;11142;49.930;8.606;2023-07-29T06:00:00;99363.34;;;21.80;100.00
21956;BME280;11142;49.930;8.606;2023-07-29T06:02:38;99368.41;;;21.60;100.00
21956;BME280;11142;49.930;8.606;2023-07-29T06:05:12;99362.59;;;21.50;100.00
21956;BME280;11142;49.930;8.606;2023-07-29T06:07:44;99361.22;;;21.54;100.00
21956;BME280;11142;49.930;8.606;2023-07-29T06:10:15;99366.50;;;21.69;100.00
21956;BME280;11142;49.930;8.606;2023-07-29T06:12:45;99362.81;;;21.85;100.00
21956;BME280;11142;49.930;8.606;2023-07-29T06:15:17;99370.69;;;21.63;100.00
21956;BME280;11142;49.930;8.606;2023-07-29T06:17:48;99365.22;;;21.65;100.00
21956;BME280;11142;49.930;8.606;2023-07-29T06:20:16;99370.16;;;21.53;100.00
21956;BME280;11142;49.930;8.606;2023-07-29T06:22:46;99369.78;;;21.56;100.00
21956;BME280;11142;49.930;8.606;2023-07-29T06:25:15;99368.44;;;21.46;100.00
21956;BME280;11142;49.930;8.606;2023-07-29T06:27:44;99372.94;;;21.66;100.00
21956;BME280;11142;49.930;8.606;2023-07-29T06:30:12;99377.94;;;21.76;100.00
21956;BME280;11142;49.930;8.606;2023-07-29T06:32:39;99370.00;;;21.76;100.00
21956;BME280;11142;49.930;8.606;2023-07-29T06:35:09;99373.31;;;21.78;100.00
21956;BME280;11142;49.930;8.606;2023-07-29T06:37:37;99374.66;;;21.89;100.00
21956;BME280;11142;49.930;8.606;2023-07-29T06:40:07;99371.66;;;22.13;100.00
21956;BME280;11142;49.930;8.606;2023-07-29T06:42:36;99380.16;;;22.30;100.00
21956;BME280;11142;49.930;8.606;2023-07-29T06:45:05;99397.72;;;22.37;100.00
21956;BME280;11142;49.930;8.606;2023-07-29T06:47:33;99389.53;;;22.11;100.00
21956;BME280;11142;49.930;8.606;2023-07-29T06:50:01;99373.28;;;22.14;100.00
21956;BME280;11142;49.930;8.606;2023-07-29T06:52:29;99372.06;;;22.10;100.00
21956;BME280;11142;49.930;8.606;2023-07-29T06:54:57;99362.53;;;21.94;100.00
21956;BME280;11142;49.930;8.606;2023-07-29T06:57:27;99355.28;;;21.67;100.00
21956;BME280;11142;49.930;8.606;2023-07-29T06:59:57;99365.63;;;21.33;100.00
21956;BME280;11142;49.930;8.606;2023-07-29T07:02:25;99383.91;;;21.34;100.00
21956;BME280;11142;49.930;8.606;2023-07-29T07:04:54;99395.44;;;21.04;100.00
21956;BME280;11142;49.930;8.606;2023-07-29T07:07:22;99402.66;;;20.95;100.00
21956;BME280;11142;49.930;8.606;2023-07-29T07:09:50;99381.84;;;20.78;100.00
21956;BME280;11142;49.930;8.606;2023-07-29T07:12:18;99347.72;;;20.61;100.00
21956;BME280;11142;49.930;8.606;2023-07-29T07:14:47;99358.53;;;20.52;100.00
21956;BME280;11142;49.930;8.606;2023-07-29T07:17:15;99364.25;;;20.41;100.00
21956;BME280;11142;49.930;8.606;2023-07-29T07:19:43;99370.09;;;20.51;100.00
21956;BME280;11142;49.930;8.606;2023-07-29T07:22:11;99366.03;;;20.63;100.00
21956;BME280;11142;49.930;8.606;2023-07-29T07:24:39;99365.78;;;20.73;100.00
21956;BME280;11142;49.930;8.606;2023-07-29T07:27:07;99362.88;;;20.67;100.00
21956;BME280;11142;49.930;8.606;2023-07-29T07:29:35;99371.16;;;20.42;100.00
21956;BME280;11142;49.930;8.606;2023-07-29T07:49:48;99404.38;;;20.51;100.00
21956;BME280;11142;49.930;8.606;2023-07-29T07:52:17;99410.63;;;20.50;100.00
21956;BME280;11142;49.930;8.606;2023-07-29T07:54:45;99420.69;;;20.69;100.00
21956;BME280;11142;49.930;8.606;2023-07-29T07:57:13;99412.69;;;20.77;100.00
21956;BME280;11142;49.930;8.606;2023-07-29T07:59:43;99408.06;;;20.79;100.00
21956;BME280;11142;49.930;8.606;2023-07-29T08:02:13;99405.69;;;20.84;100.00
21956;BME280;11142;49.930;8.606;2023-07-29T08:04:41;99412.84;;;20.98;100.00
21956;BME280;11142;49.930;8.606;2023-07-29T08:07:13;99408.78;;;21.10;100.00
21956;BME280;11142;49.930;8.606;2023-07-29T08:09:43;99410.41;;;21.26;100.00
21956;BME280;11142;49.930;8.606;2023-07-29T08:12:13;99402.75;;;21.31;100.00
21956;BME280;11142;49.930;8.606;2023-07-29T08:14:48;99405.41;;;21.46;100.00
21956;BME280;11142;49.930;8.606;2023-07-29T08:17:17;99406.53;;;21.72;100.00
21956;BME280;11142;49.930;8.606;2023-07-29T08:19:45;99406.34;;;21.89;100.00
21956;BME280;11142;49.930;8.606;2023-07-29T08:22:17;99419.69;;;22.38;100.00
21956;BME280;11142;49.930;8.606;2023-07-29T08:24:50;99424.91;;;23.29;100.00
21956;BME280;11142;49.930;8.606;2023-07-29T08:27:19;99430.09;;;24.65;100.00
21956;BME280;11142;49.930;8.606;2023-07-29T08:29:48;99451.03;;;27.28;100.00
21956;BME280;11142;49.930;8.606;2023-07-29T08:32:16;99462.59;;;27.94;100.00
21956;BME280;11142;49.930;8.606;2023-07-29T08:34:45;99480.00;;;27.97;100.00
21956;BME280;11142;49.930;8.606;2023-07-29T08:37:22;99483.47;;;28.34;100.00
21956;BME280;11142;49.930;8.606;2023-07-29T08:39:50;99476.41;;;27.73;100.00
21956;BME280;11142;49.930;8.606;2023-07-29T08:42:20;99481.16;;;27.28;100.00
21956;BME280;11142;49.930;8.606;2023-07-29T08:44:51;99478.19;;;27.79;100.00
21956;BME280;11142;49.930;8.606;2023-07-29T08:47:22;99471.16;;;28.33;100.00
21956;BME280;11142;49.930;8.606;2023-07-29T08:49:51;99478.50;;;27.71;100.00
21956;BME280;11142;49.930;8.606;2023-07-29T08:52:22;99479.03;;;27.62;100.00
21956;BME280;11142;49.930;8.606;2023-07-29T08:54:51;99469.31;;;27.24;100.00
21956;BME280;11142;49.930;8.606;2023-07-29T08:57:20;99466.78;;;26.86;100.00
21956;BME280;11142;49.930;8.606;2023-07-29T08:59:50;99466.94;;;27.16;100.00
21956;BME280;11142;49.930;8.606;2023-07-29T09:02:18;99476.88;;;27.70;100.00
21956;BME280;11142;49.930;8.606;2023-07-29T09:04:47;99469.06;;;28.05;100.00
21956;BME280;11142;49.930;8.606;2023-07-29T09:07:17;99470.97;;;28.99;100.00
21956;BME280;11142;49.930;8.606;2023-07-29T09:09:46;99472.50;;;29.53;100.00
21956;BME280;11142;49.930;8.606;2023-07-29T09:12:14;99468.44;;;29.16;100.00
21956;BME280;11142;49.930;8.606;2023-07-29T09:14:43;99476.78;;;28.73;100.00
21956;BME280;11142;49.930;8.606;2023-07-29T09:17:11;99473.53;;;28.41;100.00
21956;BME280;11142;49.930;8.606;2023-07-29T09:19:40;99471.13;;;28.03;100.00
21956;BME280;11142;49.930;8.606;2023-07-29T09:22:16;99463.13;;;28.21;100.00
21956;BME280;11142;49.930;8.606;2023-07-29T09:24:47;99471.34;;;29.02;100.00
21956;BME280;11142;49.930;8.606;2023-07-29T09:27:24;99473.19;;;29.02;100.00
21956;BME280;11142;49.930;8.606;2023-07-29T09:29:55;99475.41;;;28.64;100.00
21956;BME280;11142;49.930;8.606;2023-07-29T09:32:25;99483.19;;;29.18;100.00
21956;BME280;11142;49.930;8.606;2023-07-29T09:34:54;99484.34;;;29.69;100.00
21956;BME280;11142;49.930;8.606;2023-07-29T09:37:22;99484.72;;;29.84;100.00
21956;BME280;11142;49.930;8.606;2023-07-29T09:39:52;99493.56;;;30.86;100.00
21956;BME280;11142;49.930;8.606;2023-07-29T09:42:21;99484.66;;;31.69;84.82
21956;BME280;11142;49.930;8.606;2023-07-29T09:44:50;99492.50;;;32.40;86.73
21956;BME280;11142;49.930;8.606;2023-07-29T09:47:21;99502.31;;;32.30;83.49
21956;BME280;11142;49.930;8.606;2023-07-29T09:49:50;99502.94;;;31.72;90.39
21956;BME280;11142;49.930;8.606;2023-07-29T09:52:19;99492.16;;;30.95;86.81
21956;BME280;11142;49.930;8.606;2023-07-29T09:54:47;99494.25;;;31.10;98.02
21956;BME280;11142;49.930;8.606;2023-07-29T09:57:18;99476.00;;;30.62;96.91
21956;BME280;11142;49.930;8.606;2023-07-29T09:59:55;99470.88;;;30.43;100.00
21956;BME280;11142;49.930;8.606;2023-07-29T10:02:24;99466.34;;;31.27;90.50
21956;BME280;11142;49.930;8.606;2023-07-29T10:04:55;99474.22;;;31.50;87.75
21956;BME280;11142;49.930;8.606;2023-07-29T10:07:24;99466.88;;;31.63;84.46
21956;BME280;11142;49.930;8.606;2023-07-29T10:09:52;99463.56;;;31.77;85.13
21956;BME280;11142;49.930;8.606;2023-07-29T10:12:22;99456.28;;;31.18;91.21
21956;BME280;11142;49.930;8.606;2023-07-29T10:14:50;99455.38;;;31.29;91.71
21956;BME280;11142;49.930;8.606;2023-07-29T10:17:18;99454.25;;;31.08;84.83
21956;BME280;11142;49.930;8.606;2023-07-29T10:19:49;99453.50;;;32.11;79.15
21956;BME280;11142;49.930;8.606;2023-07-29T10:22:18;99456.56;;;33.52;67.48
21956;BME280;11142;49.930;8.606;2023-07-29T10:24:48;99453.13;;;34.59;62.42
21956;BME280;11142;49.930;8.606;2023-07-29T10:27:17;99460.41;;;34.99;62.34
21956;BME280;11142;49.930;8.606;2023-07-29T10:29:47;99448.28;;;36.40;52.77
21956;BME280;11142;49.930;8.606;2023-07-29T10:32:16;99461.69;;;38.12;50.61
21956;BME280;11142;49.930;8.606;2023-07-29T10:34:46;99456.84;;;35.44;57.05
21956;BME280;11142;49.930;8.606;2023-07-29T10:37:14;99444.75;;;32.79;70.17
21956;BME280;11142;49.930;8.606;2023-07-29T10:39:51;99450.03;;;34.10;69.12
21956;BME280;11142;49.930;8.606;2023-07-29T10:42:21;99445.84;;;34.59;60.77
21956;BME280;11142;49.930;8.606;2023-07-29T10:44:52;99448.13;;;33.38;66.22
21956;BME280;11142;49.930;8.606;2023-07-29T10:47:21;99442.59;;;34.52;65.57
21956;BME280;11142;49.930;8.606;2023-07-29T10:49:51;99443.94;;;35.20;63.07
21956;BME280;11142;49.930;8.606;2023-07-29T10:52:30;99446.69;;;35.85;58.20
21956;BME280;11142;49.930;8.606;2023-07-29T10:54:59;99438.72;;;35.54;58.48
21956;BME280;11142;49.930;8.606;2023-07-29T10:57:31;99435.56;;;34.26;66.17
21956;BME280;11142;49.930;8.606;2023-07-29T11:00:02;99440.72;;;35.03;65.28
21956;BME280;11142;49.930;8.606;2023-07-29T11:02:32;99428.03;;;35.19;60.59
21956;BME280;11142;49.930;8.606;2023-07-29T11:05:04;99431.25;;;35.06;65.58
21956;BME280;11142;49.930;8.606;2023-07-29T11:07:42;99418.59;;;34.51;65.67
21956;BME280;11142;49.930;8.606;2023-07-29T11:10:11;99417.78;;;34.20;66.96
21956;BME280;11142;49.930;8.606;2023-07-29T11:12:40;99418.59;;;34.46;64.15
21956;BME280;11142;49.930;8.606;2023-07-29T11:15:13;99407.06;;;33.58;62.94
21956;BME280;11142;49.930;8.606;2023-07-29T11:17:42;99408.59;;;34.11;68.58
21956;BME280;11142;49.930;8.606;2023-07-29T11:20:11;99402.72;;;34.75;65.41
21956;BME280;11142;49.930;8.606;2023-07-29T11:22:40;99409.59;;;36.00;55.96
21956;BME280;11142;49.930;8.606;2023-07-29T11:25:11;99403.31;;;35.66;55.57
21956;BME280;11142;49.930;8.606;2023-07-29T11:27:40;99390.56;;;34.22;56.18
21956;BME280;11142;49.930;8.606;2023-07-29T11:30:09;99387.47;;;33.16;60.46
21956;BME280;11142;49.930;8.606;2023-07-29T11:32:40;99386.72;;;32.83;61.93
21956;BME280;11142;49.930;8.606;2023-07-29T11:35:09;99376.47;;;31.90;66.97
21956;BME280;11142;49.930;8.606;2023-07-29T11:37:37;99376.69;;;30.18;74.44
21956;BME280;11142;49.930;8.606;2023-07-29T11:40:08;99366.16;;;28.51;100.00
21956;BME280;11142;49.930;8.606;2023-07-29T11:42:38;99365.72;;;29.00;85.12
21956;BME280;11142;49.930;8.606;2023-07-29T11:45:07;99360.22;;;28.25;83.16
21956;BME280;11142;49.930;8.606;2023-07-29T11:47:42;99355.00;;;29.12;73.94
21956;BME280;11142;49.930;8.606;2023-07-29T11:52:31;99357.25;;;32.56;56.39
21956;BME280;11142;49.930;8.606;2023-07-29T11:55:01;99372.75;;;34.96;43.45
21956;BME280;11142;49.930;8.606;2023-07-29T11:57:30;99377.38;;;34.40;42.75
21956;BME280;11142;49.930;8.606;2023-07-29T11:59:58;99370.38;;;31.29;54.66
21956;BME280;11142;49.930;8.606;2023-07-29T12:02:26;99377.38;;;34.15;45.79
21956;BME280;11142;49.930;8.606;2023-07-29T12:04:55;99383.13;;;36.99;37.46
21956;BME280;11142;49.930;8.606;2023-07-29T12:07:24;99385.63;;;37.19;34.13
21956;BME280;11142;49.930;8.606;2023-07-29T12:09:54;99378.56;;;37.23;34.39
21956;BME280;11142;49.930;8.606;2023-07-29T12:12:22;99374.28;;;36.31;34.33
21956;BME280;11142;49.930;8.606;2023-07-29T12:14:50;99375.19;;;37.31;33.10
21956;BME280;11142;49.930;8.606;2023-07-29T12:17:18;99375.06;;;35.92;35.41
21956;BME280;11142;49.930;8.606;2023-07-29T12:19:47;99367.72;;;36.70;34.31
21956;BME280;11142;49.930;8.606;2023-07-29T12:22:17;99377.59;;;38.31;32.01
21956;BME280;11142;49.930;8.606;2023-07-29T12:24:46;99361.97;;;34.05;38.53
21956;BME280;11142;49.930;8.606;2023-07-29T12:27:15;99369.03;;;32.55;44.27
21956;BME280;11142;49.930;8.606;2023-07-29T12:29:43;99366.69;;;30.14;46.25
21956;BME280;11142;49.930;8.606;2023-07-29T12:32:13;99367.34;;;29.36;52.28
21956;BME280;11142;49.930;8.606;2023-07-29T12:34:42;99368.34;;;31.85;44.12
21956;BME280;11142;49.930;8.606;2023-07-29T12:37:11;99353.34;;;31.62;42.35
21956;BME280;11142;49.930;8.606;2023-07-29T12:39:40;99348.50;;;30.44;45.81
21956;BME280;11142;49.930;8.606;2023-07-29T12:42:08;99355.78;;;32.81;45.27
21956;BME280;11142;49.930;8.606;2023-07-29T12:44:38;99357.91;;;35.68;36.77
21956;BME280;11142;49.930;8.606;2023-07-29T12:47:06;99366.59;;;34.65;34.59
21956;BME280;11142;49.930;8.606;2023-07-29T12:49:35;99356.28;;;32.41;39.62
21956;BME280;11142;49.930;8.606;2023-07-29T12:52:04;99371.16;;;34.35;38.14
21956;BME280;11142;49.930;8.606;2023-07-29T12:54:33;99359.09;;;33.45;36.80
21956;BME280;11142;49.930;8.606;2023-07-29T12:57:01;99365.84;;;32.58;40.32
21956;BME280;11142;49.930;8.606;2023-07-29T12:59:29;99361.75;;;34.73;36.39
21956;BME280;11142;49.930;8.606;2023-07-29T13:01:59;99369.00;;;34.67;36.49
21956;BME280;11142;49.930;8.606;2023-07-29T13:04:27;99370.97;;;35.46;33.96
21956;BME280;11142;49.930;8.606;2023-07-29T13:06:56;99367.84;;;33.77;36.42
21956;BME280;11142;49.930;8.606;2023-07-29T13:09:26;99373.84;;;34.20;35.89
21956;BME280;11142;49.930;8.606;2023-07-29T13:11:55;99369.47;;;35.14;35.38
21956;BME280;11142;49.930;8.606;2023-07-29T13:14:23;99362.72;;;33.91;34.38
21956;BME280;11142;49.930;8.606;2023-07-29T13:16:52;99361.69;;;34.93;35.86
21956;BME280;11142;49.930;8.606;2023-07-29T13:19:23;99358.63;;;37.99;30.20
21956;BME280;11142;49.930;8.606;2023-07-29T13:21:51;99361.31;;;37.14;30.79
21956;BME280;11142;49.930;8.606;2023-07-29T13:24:20;99360.81;;;33.61;35.57
21956;BME280;11142;49.930;8.606;2023-07-29T13:26:49;99366.44;;;35.31;33.66